createdAt,value
2023-04-08T00:01:01.960Z,100878.25
2023-04-08T00:04:03.665Z,100878.31
2023-04-08T00:07:05.871Z,100877.44
2023-04-08T00:10:07.933Z,100871.25
2023-04-08T00:13:09.602Z,100869.59
2023-04-08T00:16:11.151Z,100882.63
2023-04-08T00:19:12.577Z,100880.06
2023-04-08T00:22:13.979Z,100886.97
2023-04-08T00:25:15.898Z,100881.72
2023-04-08T00:28:17.285Z,100893.91
2023-04-08T00:31:18.694Z,100888.72
2023-04-08T00:34:20.826Z,100890.56
2023-04-08T00:37:23.101Z,100888.19
2023-04-08T00:40:24.564Z,100881.19
2023-04-08T00:43:25.956Z,100877.69
2023-04-08T00:46:27.978Z,100883.09
2023-04-08T00:49:31.272Z,100883.13
2023-04-08T00:52:32.728Z,100883.91
2023-04-08T00:55:34.321Z,100885.56
2023-04-08T00:58:35.930Z,100888.94
2023-04-08T01:01:44.623Z,100889.72
2023-04-08T01:04:55.836Z,100894.03
2023-04-08T01:08:01.835Z,100885.31
2023-04-08T01:11:05.881Z,100885.31
2023-04-08T01:14:10.099Z,100885.34
2023-04-08T01:17:12.341Z,100897.59
2023-04-08T01:20:16.452Z,100889.69
2023-04-08T01:23:24.751Z,100894.03
2023-04-08T01:26:26.888Z,100894.03
2023-04-08T01:29:30.606Z,100887.78
2023-04-08T01:32:33.184Z,100887.81
2023-04-08T01:35:35.977Z,100887.00
2023-04-08T01:38:39.318Z,100885.34
2023-04-08T01:41:41.253Z,100888.84
2023-04-08T01:44:43.609Z,100876.50
2023-04-08T01:47:49.964Z,100880.84
2023-04-08T01:50:52.121Z,100880.84
2023-04-08T01:53:53.600Z,100873.06
2023-04-08T01:56:58.086Z,100875.50
2023-04-08T02:00:03.570Z,100876.47
2023-04-08T02:03:24.269Z,100876.59
2023-04-08T02:06:27.588Z,100881.66
2023-04-08T02:09:29.543Z,100876.47
2023-04-08T02:12:33.644Z,100873.06
2023-04-08T02:15:41.308Z,100878.41
2023-04-08T02:18:51.462Z,100887.31
2023-04-08T02:21:57.935Z,100881.19
2023-04-08T02:25:01.947Z,100885.53
2023-04-08T02:28:07.019Z,100883.78
2023-04-08T02:31:13.397Z,100883.81
2023-04-08T02:34:22.031Z,100884.69
2023-04-08T02:37:23.516Z,100884.69
2023-04-08T02:40:30.221Z,100889.88
2023-04-08T02:43:32.285Z,100890.69
2023-04-08T02:46:33.713Z,100884.56
2023-04-08T02:49:37.688Z,100881.03
2023-04-08T02:52:39.473Z,100881.94
2023-04-08T02:55:41.000Z,100877.66
2023-04-08T02:58:42.498Z,100888.97
2023-04-08T03:01:43.961Z,100878.53
2023-04-08T03:04:45.331Z,100894.34
2023-04-08T03:07:46.713Z,100882.03
2023-04-08T03:10:49.246Z,100889.06
2023-04-08T03:13:50.927Z,100889.06
2023-04-08T03:16:52.358Z,100886.44
2023-04-08T03:19:53.764Z,100889.19
2023-04-08T03:22:55.116Z,100886.63
2023-04-08T03:25:56.518Z,100891.03
2023-04-08T03:28:57.995Z,100887.50
2023-04-08T03:31:59.466Z,100892.72
2023-04-08T03:35:01.013Z,100893.53
2023-04-08T03:38:02.427Z,100893.47
2023-04-08T03:41:03.941Z,100896.16
2023-04-08T03:44:05.392Z,100906.78
2023-04-08T03:47:06.854Z,100892.75
2023-04-08T03:50:08.598Z,100898.91
2023-04-08T03:53:12.088Z,100903.34
2023-04-08T03:56:13.469Z,100900.81
2023-04-08T03:59:14.843Z,100909.69
2023-04-08T04:02:16.332Z,100906.31
2023-04-08T04:05:17.835Z,100907.28
2023-04-08T04:08:19.482Z,100902.03
2023-04-08T04:11:21.927Z,100907.38
2023-04-08T04:14:23.290Z,100911.81
2023-04-08T04:17:24.771Z,100901.44
2023-04-08T04:20:26.394Z,100909.38
2023-04-08T04:23:27.802Z,100915.56
2023-04-08T04:26:29.245Z,100915.56
2023-04-08T04:29:31.670Z,100924.38
2023-04-08T04:32:33.062Z,100926.22
2023-04-08T04:35:34.899Z,100916.69
2023-04-08T04:38:36.959Z,100917.63
2023-04-08T04:41:40.537Z,100920.31
2023-04-08T04:44:42.438Z,100928.19
2023-04-08T04:47:43.876Z,100927.31
2023-04-08T04:50:53.957Z,100926.41
2023-04-08T04:53:55.427Z,100928.94
2023-04-08T04:56:56.837Z,100929.69
2023-04-08T04:59:58.201Z,100930.44
2023-04-08T05:02:59.726Z,100934.78
2023-04-08T05:06:01.440Z,100929.50
2023-04-08T05:09:02.843Z,100932.19
2023-04-08T05:12:04.558Z,100939.25
2023-04-08T05:15:06.705Z,100940.94
2023-04-08T05:18:08.134Z,100940.06
2023-04-08T05:21:09.605Z,100944.19
2023-04-08T05:24:10.977Z,100942.19
2023-04-08T05:27:12.356Z,100942.13
2023-04-08T05:30:13.755Z,100945.63
2023-04-08T05:33:16.257Z,100943.94
2023-04-08T05:36:17.624Z,100944.75
2023-04-08T05:39:19.960Z,100952.59
2023-04-08T05:42:21.838Z,100951.72
2023-04-08T05:45:23.220Z,100963.13
2023-04-08T05:48:24.709Z,100964.03
2023-04-08T05:51:26.157Z,100971.00
2023-04-08T05:54:27.529Z,100973.53
2023-04-08T05:57:29.545Z,100966.41
2023-04-08T06:00:31.609Z,100971.66
2023-04-08T06:03:33.208Z,100971.66
2023-04-08T06:06:34.753Z,100976.03
2023-04-08T06:09:37.065Z,100976.88
2023-04-08T06:12:39.368Z,100987.34
2023-04-08T06:15:40.802Z,100986.50
2023-04-08T06:18:42.398Z,100983.88
2023-04-08T06:21:43.756Z,100997.03
2023-04-08T06:24:47.542Z,100994.31
2023-04-08T06:27:49.015Z,100998.53
2023-04-08T06:30:50.467Z,100994.13
2023-04-08T06:33:52.346Z,101006.34
2023-04-08T06:36:53.771Z,100995.78
2023-04-08T06:39:55.816Z,101002.75
2023-04-08T06:42:57.171Z,100995.53
2023-04-08T06:46:08.771Z,100995.34
2023-04-08T06:49:10.217Z,101003.25
2023-04-08T06:52:13.041Z,100996.16
2023-04-08T06:55:16.102Z,100998.66
2023-04-08T06:58:18.061Z,101005.44
2023-04-08T07:01:19.484Z,101005.44
2023-04-08T07:04:21.084Z,101007.78
2023-04-08T07:07:24.159Z,101005.06
2023-04-08T07:10:25.881Z,101011.06
2023-04-08T07:13:27.379Z,101015.09
2023-04-08T07:16:29.004Z,101015.66
2023-04-08T07:19:30.890Z,101015.69
2023-04-08T07:22:32.356Z,101020.84
2023-04-08T07:25:35.216Z,101026.97
2023-04-08T07:28:36.640Z,101028.63
2023-04-08T07:31:38.219Z,101026.09
2023-04-08T07:34:39.604Z,101024.13
2023-04-08T07:37:41.019Z,101029.88
2023-04-08T07:40:43.602Z,101040.50
2023-04-08T07:43:45.180Z,101049.53
2023-04-08T07:46:50.771Z,101044.16
2023-04-08T07:49:52.609Z,101051.97
2023-04-08T07:52:54.466Z,101047.88
2023-04-08T07:55:56.064Z,101051.31
2023-04-08T07:58:57.828Z,101048.22
2023-04-08T08:01:59.410Z,101051.53
2023-04-08T08:05:03.133Z,101056.78
2023-04-08T08:08:04.915Z,101056.78
2023-04-08T08:11:06.504Z,101055.91
2023-04-08T08:14:07.982Z,101058.53
2023-04-08T08:17:09.421Z,101054.94
2023-04-08T08:20:11.474Z,101054.97
2023-04-08T08:23:12.884Z,101060.94
2023-04-08T08:26:14.255Z,101061.41
2023-04-08T08:29:15.745Z,101057.75
2023-04-08T08:32:17.136Z,101060.78
2023-04-08T08:35:18.590Z,101066.00
2023-04-08T08:38:19.961Z,101069.84
2023-04-08T08:41:21.645Z,101061.63
2023-04-08T08:44:23.662Z,101057.53
2023-04-08T08:47:25.266Z,101062.28
2023-04-08T08:50:27.790Z,101064.97
2023-04-08T08:53:32.777Z,101070.31
2023-04-08T08:56:36.139Z,101067.84
2023-04-08T08:59:37.783Z,101076.59
2023-04-08T09:02:39.337Z,101077.56
2023-04-08T09:05:54.465Z,101074.81
2023-04-08T09:08:55.838Z,101072.28
2023-04-08T09:12:04.423Z,101079.63
2023-04-08T09:15:09.924Z,101076.78
2023-04-08T09:18:22.994Z,101077.31
2023-04-08T09:21:27.407Z,101072.38
2023-04-08T09:24:30.895Z,101072.91
2023-04-08T09:27:36.297Z,101077.06
2023-04-08T09:30:37.907Z,101082.16
2023-04-08T09:33:39.329Z,101079.97
2023-04-08T09:36:40.895Z,101072.84
2023-04-08T09:39:42.320Z,101073.75
2023-04-08T09:42:50.612Z,101083.94
2023-04-08T09:45:52.611Z,101081.88
2023-04-08T09:49:33.740Z,101080.16
2023-04-08T09:52:46.997Z,101083.31
2023-04-08T09:55:53.267Z,101087.69
2023-04-08T09:58:59.546Z,101081.53
2023-04-08T10:02:05.694Z,101078.34
2023-04-08T10:05:08.593Z,101084.69
2023-04-08T10:08:10.522Z,101080.56
2023-04-08T10:11:12.318Z,101086.56
2023-04-08T10:14:13.698Z,101085.94
2023-04-08T10:17:25.624Z,101081.03
2023-04-08T10:20:36.358Z,101086.75
2023-04-08T10:23:56.364Z,101083.34
2023-04-08T10:26:58.008Z,101079.47
2023-04-08T10:29:59.375Z,101079.56
2023-04-08T10:33:01.374Z,101082.69
2023-04-08T10:36:13.326Z,101088.28
2023-04-08T10:39:16.328Z,101086.56
2023-04-08T10:42:17.768Z,101081.13
2023-04-08T10:45:19.329Z,101083.63
2023-04-08T10:48:22.828Z,101084.53
2023-04-08T10:51:24.517Z,101089.81
2023-04-08T10:54:27.046Z,101081.88
2023-04-08T10:57:28.502Z,101077.50
2023-04-08T11:00:36.876Z,101083.56
2023-04-08T11:03:39.485Z,101091.81
2023-04-08T11:06:43.186Z,101088.03
2023-04-08T11:09:44.832Z,101081.84
2023-04-08T11:12:46.777Z,101087.50
2023-04-08T11:15:48.294Z,101088.13
2023-04-08T11:18:50.910Z,101086.31
2023-04-08T11:21:53.300Z,101087.00
2023-04-08T11:24:56.958Z,101087.00
2023-04-08T11:27:58.522Z,101084.47
2023-04-08T11:31:00.415Z,101085.56
2023-04-08T11:34:01.995Z,101075.06
2023-04-08T11:37:03.450Z,101082.09
2023-04-08T11:40:09.562Z,101081.66
2023-04-08T11:43:13.665Z,101085.03
2023-04-08T11:46:15.931Z,101085.25
2023-04-08T11:49:17.418Z,101086.13
2023-04-08T11:52:18.824Z,101088.41
2023-04-08T11:55:31.910Z,101079.81
2023-04-08T11:58:33.417Z,101081.38
2023-04-08T12:01:34.834Z,101079.34
2023-04-08T12:04:36.301Z,101074.56
2023-04-08T12:07:38.137Z,101078.59
2023-04-08T12:10:39.574Z,101085.13
2023-04-08T12:13:41.020Z,101088.63
2023-04-08T12:16:42.627Z,101092.91
2023-04-08T12:19:44.188Z,101093.78
2023-04-08T12:22:45.778Z,101079.84
2023-04-08T12:25:47.356Z,101089.41
2023-04-08T12:28:48.826Z,101083.75
2023-04-08T12:31:50.523Z,101088.84
2023-04-08T12:34:52.317Z,101083.53
2023-04-08T12:37:54.082Z,101085.81
2023-04-08T12:40:56.030Z,101082.78
2023-04-08T12:43:57.417Z,101089.91
2023-04-08T12:46:58.894Z,101088.69
2023-04-08T12:50:00.273Z,101079.19
2023-04-08T12:53:01.639Z,101083.06
2023-04-08T12:56:03.093Z,101075.09
2023-04-08T12:59:04.677Z,101084.03
2023-04-08T13:02:06.082Z,101076.97
2023-04-08T13:05:07.743Z,101082.47
2023-04-08T13:08:09.174Z,101081.03
2023-04-08T13:11:10.975Z,101088.63
2023-04-08T13:14:13.629Z,101069.94
2023-04-08T13:17:15.020Z,101070.34
2023-04-08T13:20:16.762Z,101061.28
2023-04-08T13:23:18.143Z,101059.19
2023-04-08T13:26:19.521Z,101054.03
2023-04-08T13:29:20.938Z,101046.25
2023-04-08T13:32:22.347Z,101052.28
2023-04-08T13:35:23.783Z,101053.94
2023-04-08T13:38:25.361Z,101049.63
2023-04-08T13:41:28.072Z,101048.34
2023-04-08T13:44:29.542Z,101056.00
2023-04-08T13:47:31.141Z,101049.88
2023-04-08T13:50:32.676Z,101055.31
2023-04-08T13:53:34.061Z,101057.72
2023-04-08T13:56:35.638Z,101053.00
2023-04-08T13:59:37.093Z,101048.72
2023-04-08T14:02:38.647Z,101049.63
2023-04-08T14:05:40.358Z,101052.19
2023-04-08T14:08:42.736Z,101052.72
2023-04-08T14:11:44.192Z,101039.97
2023-04-08T14:14:45.621Z,101049.59
2023-04-08T14:17:47.211Z,101040.31
2023-04-08T14:20:48.657Z,101040.81
2023-04-08T14:23:50.216Z,101043.13
2023-04-08T14:26:52.074Z,101037.72
2023-04-08T14:29:54.154Z,101035.84
2023-04-08T14:32:56.469Z,101036.72
2023-04-08T14:35:59.743Z,101037.16
2023-04-08T14:39:02.847Z,101038.16
2023-04-08T14:42:04.226Z,101038.50
2023-04-08T14:45:06.948Z,101042.34
2023-04-08T14:48:08.392Z,101038.81
2023-04-08T14:51:10.208Z,101043.81
2023-04-08T14:54:16.632Z,101046.13
2023-04-08T14:57:18.533Z,101043.25
2023-04-08T15:00:23.003Z,101048.41
2023-04-08T15:03:25.354Z,101050.72
2023-04-08T15:06:31.217Z,101059.31
2023-04-08T15:09:33.279Z,101058.16
2023-04-08T15:12:36.282Z,101062.88
2023-04-08T15:15:38.167Z,101065.38
2023-04-08T15:18:40.325Z,101067.78
2023-04-08T15:21:42.214Z,101064.75
2023-04-08T15:24:44.269Z,101068.44
2023-04-08T15:27:47.099Z,101073.94
2023-04-08T15:30:49.813Z,101072.78
2023-04-08T15:33:52.247Z,101074.94
2023-04-08T15:36:56.922Z,101081.16
2023-04-08T15:39:58.976Z,101068.31
2023-04-08T15:43:00.856Z,101072.00
2023-04-08T15:46:02.657Z,101073.84
2023-04-08T15:49:04.038Z,101078.50
2023-04-08T15:52:06.438Z,101080.47
2023-04-08T15:55:08.534Z,101072.63
2023-04-08T15:58:10.006Z,101073.91
2023-04-08T16:01:12.514Z,101068.47
2023-04-08T16:04:14.995Z,101070.63
2023-04-08T16:07:16.671Z,101068.88
2023-04-08T16:10:18.485Z,101080.78
2023-04-08T16:13:20.338Z,101077.44
2023-04-08T16:16:23.064Z,101088.59
2023-04-08T16:19:24.532Z,101094.53
2023-04-08T16:22:29.088Z,101091.78
2023-04-08T16:25:31.767Z,101090.09
2023-04-08T16:28:34.273Z,101092.59
2023-04-08T16:31:36.808Z,101095.28
2023-04-08T16:34:39.203Z,101104.38
2023-04-08T16:37:41.045Z,101095.84
2023-04-08T16:40:43.087Z,101097.00
2023-04-08T16:43:44.776Z,101115.28
2023-04-08T16:46:47.089Z,101108.25
2023-04-08T16:49:48.468Z,101114.63
2023-04-08T16:52:50.458Z,101109.53
2023-04-08T16:55:52.519Z,101116.50
2023-04-08T16:58:54.071Z,101120.97
2023-04-08T17:01:57.247Z,101123.44
2023-04-08T17:04:59.130Z,101123.69
2023-04-08T17:08:00.899Z,101129.25
2023-04-08T17:11:07.161Z,101130.19
2023-04-08T17:14:10.374Z,101129.97
2023-04-08T17:17:12.352Z,101136.34
2023-04-08T17:20:16.777Z,101146.16
2023-04-08T17:23:18.611Z,101138.38
2023-04-08T17:26:22.077Z,101135.88
2023-04-08T17:29:25.391Z,101144.00
2023-04-08T17:32:27.477Z,101142.91
2023-04-08T17:35:29.259Z,101154.50
2023-04-08T17:38:32.086Z,101150.09
2023-04-08T17:41:40.083Z,101157.22
2023-04-08T17:44:44.549Z,101159.06
2023-04-08T17:47:46.525Z,101159.19
2023-04-08T17:50:48.361Z,101173.34
2023-04-08T17:53:50.400Z,101165.69
2023-04-08T17:56:51.941Z,101170.00
2023-04-08T17:59:53.307Z,101171.00
2023-04-08T18:02:55.206Z,101171.06
2023-04-08T18:05:57.734Z,101172.22
2023-04-08T18:09:00.632Z,101171.44
2023-04-08T18:12:02.566Z,101169.84
2023-04-08T18:15:04.663Z,101181.38
2023-04-08T18:18:06.531Z,101185.06
2023-04-08T18:21:08.505Z,101185.09
2023-04-08T18:24:10.295Z,101186.84
2023-04-08T18:27:12.890Z,101198.28
2023-04-08T18:30:15.434Z,101195.56
2023-04-08T18:33:17.775Z,101199.13
2023-04-08T18:36:19.192Z,101200.09
2023-04-08T18:39:21.373Z,101197.59
2023-04-08T18:42:23.439Z,101205.56
2023-04-08T18:45:24.885Z,101212.94
2023-04-08T18:48:27.338Z,101204.25
2023-04-08T18:51:29.127Z,101212.19
2023-04-08T18:54:31.467Z,101211.47
2023-04-08T18:57:33.162Z,101215.97
2023-04-08T19:00:36.935Z,101215.19
2023-04-08T19:03:38.466Z,101221.25
2023-04-08T19:06:41.860Z,101226.72
2023-04-08T19:09:43.694Z,101226.81
2023-04-08T19:12:46.508Z,101232.00
2023-04-08T19:15:48.264Z,101238.97
2023-04-08T19:18:50.273Z,101237.44
2023-04-08T19:21:52.060Z,101241.91
2023-04-08T19:24:55.075Z,101241.94
2023-04-08T19:27:57.616Z,101239.19
2023-04-08T19:31:00.259Z,101246.16
2023-04-08T19:34:01.975Z,101245.28
2023-04-08T19:37:04.307Z,101241.84
2023-04-08T19:40:09.614Z,101249.75
2023-04-08T19:43:11.881Z,101256.03
2023-04-08T19:46:13.308Z,101252.63
2023-04-08T19:49:14.701Z,101257.13
2023-04-08T19:52:16.582Z,101253.56
2023-04-08T19:55:18.572Z,101257.94
2023-04-08T19:58:20.050Z,101259.75
2023-04-08T20:01:25.449Z,101259.69
2023-04-08T20:04:26.920Z,101260.66
2023-04-08T20:07:28.774Z,101258.94
2023-04-08T20:10:31.118Z,101255.63
2023-04-08T20:13:32.535Z,101261.06
2023-04-08T20:16:34.753Z,101268.22
2023-04-08T20:19:36.631Z,101266.44
2023-04-08T20:22:41.627Z,101263.84
2023-04-08T20:25:43.511Z,101264.00
2023-04-08T20:28:46.061Z,101267.69
2023-04-08T20:31:47.929Z,101266.69
2023-04-08T20:34:50.074Z,101275.47
2023-04-08T20:37:51.919Z,101274.59
2023-04-08T20:40:53.774Z,101269.38
2023-04-08T20:43:55.928Z,101264.16
2023-04-08T20:46:58.100Z,101272.09
2023-04-08T20:50:00.646Z,101276.59
2023-04-08T20:53:02.891Z,101272.22
2023-04-08T20:56:05.075Z,101273.16
2023-04-08T20:59:07.494Z,101274.09
2023-04-08T21:02:10.161Z,101273.38
2023-04-08T21:05:12.503Z,101275.22
2023-04-08T21:08:36.285Z,101270.72
2023-04-08T21:11:38.091Z,101272.59
2023-04-08T21:14:40.024Z,101270.94
2023-04-08T21:17:41.842Z,101269.31
2023-04-08T21:21:05.427Z,101278.09
2023-04-08T21:24:07.639Z,101273.84
2023-04-08T21:27:09.683Z,101275.63
2023-04-08T21:30:11.869Z,101277.25
2023-04-08T21:33:13.466Z,101277.31
2023-04-08T21:36:17.402Z,101277.38
2023-04-08T21:39:19.267Z,101278.44
2023-04-08T21:42:22.766Z,101277.69
2023-04-08T21:45:24.786Z,101277.81
2023-04-08T21:48:26.621Z,101276.28
2023-04-08T21:51:28.615Z,101279.81
2023-04-08T21:54:30.489Z,101273.75
2023-04-08T21:57:33.019Z,101264.94
2023-04-08T22:00:34.753Z,101273.84
2023-04-08T22:03:36.722Z,101283.56
2023-04-08T22:06:38.671Z,101274.75
2023-04-08T22:09:40.844Z,101279.16
2023-04-08T22:12:42.670Z,101285.19
2023-04-08T22:15:44.439Z,101283.59
2023-04-08T22:18:46.604Z,101279.28
2023-04-08T22:21:50.886Z,101282.13
2023-04-08T22:24:52.775Z,101274.22
2023-04-08T22:27:54.542Z,101276.91
2023-04-08T22:30:56.348Z,101272.59
2023-04-08T22:33:58.768Z,101279.63
2023-04-08T22:37:00.965Z,101270.81
2023-04-08T22:40:02.735Z,101271.56
2023-04-08T22:43:04.565Z,101271.72
2023-04-08T22:46:06.384Z,101277.84
2023-04-08T22:49:08.170Z,101271.72
2023-04-08T22:52:10.678Z,101277.75
2023-04-08T22:55:12.498Z,101277.00
2023-04-08T22:58:14.746Z,101270.94
2023-04-08T23:01:18.029Z,101274.47
2023-04-08T23:04:19.919Z,101279.88
2023-04-08T23:07:22.283Z,101271.97
2023-04-08T23:10:24.066Z,101271.06
2023-04-08T23:13:27.055Z,101279.13
2023-04-08T23:16:50.255Z,101280.97
2023-04-08T23:19:52.163Z,101281.22
2023-04-08T23:22:54.007Z,101284.69
2023-04-08T23:26:18.892Z,101283.72
2023-04-08T23:29:20.671Z,101285.50
2023-04-08T23:32:22.461Z,101290.84
2023-04-08T23:35:24.254Z,101294.41
2023-04-08T23:38:26.487Z,101291.78
2023-04-08T23:41:28.686Z,101294.38
2023-04-08T23:44:30.101Z,101295.25
2023-04-08T23:47:31.919Z,101294.47
2023-04-08T23:50:33.712Z,101285.78
2023-04-08T23:53:35.772Z,101286.78
2023-04-08T23:56:40.273Z,101282.38
2023-04-08T23:59:41.681Z,101285.91
